createdAt,value
2019-02-06T00:00:30.264Z,0.00
2019-02-06T00:01:30.249Z,0.00
2019-02-06T00:02:30.218Z,0.00
2019-02-06T00:03:30.204Z,0.00
2019-02-06T00:04:30.175Z,0.00
2019-02-06T00:05:30.148Z,0.00
2019-02-06T00:06:30.130Z,0.00
2019-02-06T00:07:30.105Z,0.00
2019-02-06T00:08:30.083Z,0.00
2019-02-06T00:09:30.057Z,0.00
2019-02-06T00:10:30.038Z,0.00
2019-02-06T00:36:08.135Z,0.00
2019-02-06T00:37:08.111Z,0.00
2019-02-06T00:38:08.089Z,0.00
2019-02-06T00:39:08.065Z,0.00
2019-02-06T00:40:08.045Z,0.00
2019-02-06T00:41:08.019Z,0.00
2019-02-06T00:42:08.012Z,0.00
2019-02-06T00:43:07.972Z,0.00
2019-02-06T00:44:07.953Z,0.00
2019-02-06T00:45:07.927Z,0.00
2019-02-06T00:46:07.911Z,0.00
2019-02-06T00:47:07.885Z,0.00
2019-02-06T00:48:07.859Z,0.00
2019-02-06T00:49:07.831Z,0.00
2019-02-06T00:50:07.821Z,0.00
2019-02-06T00:51:07.789Z,0.00
2019-02-06T00:52:07.770Z,0.00
2019-02-06T00:53:07.743Z,0.00
2019-02-06T00:54:07.720Z,0.00
2019-02-06T00:55:07.699Z,0.00
2019-02-06T00:56:07.679Z,0.00
2019-02-06T00:57:07.649Z,0.00
2019-02-06T00:58:07.632Z,0.00
2019-02-06T00:59:07.606Z,0.00
2019-02-06T01:00:07.589Z,0.00
2019-02-06T01:01:07.670Z,0.00
2019-02-06T01:02:07.538Z,0.00
2019-02-06T01:03:07.525Z,0.00
2019-02-06T01:04:07.492Z,0.00
2019-02-06T01:05:07.470Z,0.00
2019-02-06T01:06:07.447Z,0.00
2019-02-06T01:07:07.426Z,0.00
2019-02-06T01:08:07.400Z,0.00
2019-02-06T01:09:07.375Z,0.00
2019-02-06T01:10:07.353Z,0.00
2019-02-06T01:11:07.329Z,0.00
2019-02-06T01:12:07.303Z,0.00
2019-02-06T01:13:07.283Z,0.00
2019-02-06T01:14:07.259Z,0.00
2019-02-06T01:15:07.239Z,0.00
2019-02-06T01:16:07.215Z,0.00
2019-02-06T01:17:07.191Z,0.00
2019-02-06T01:18:07.186Z,0.00
2019-02-06T01:19:07.144Z,0.00
2019-02-06T01:20:07.123Z,0.00
2019-02-06T01:21:07.101Z,0.00
2019-02-06T01:22:07.079Z,0.00
2019-02-06T01:23:07.050Z,0.00
2019-02-06T01:24:07.036Z,0.00
2019-02-06T01:25:07.007Z,0.00
2019-02-06T01:26:06.981Z,0.00
2019-02-06T01:27:06.959Z,0.00
2019-02-06T01:31:44.497Z,0.00
2019-02-06T01:32:44.475Z,0.00
2019-02-06T01:33:44.453Z,0.00
2019-02-06T01:34:44.426Z,0.00
2019-02-06T01:35:49.987Z,0.00
2019-02-06T01:36:44.387Z,0.00
2019-02-06T01:37:44.362Z,0.00
2019-02-06T01:38:44.341Z,0.00
2019-02-06T01:39:44.313Z,0.00
2019-02-06T01:40:44.291Z,0.00
2019-02-06T01:41:44.263Z,0.00
2019-02-06T01:42:44.244Z,0.00
2019-02-06T01:43:44.223Z,0.00
2019-02-06T01:44:44.196Z,0.00
2019-02-06T01:45:44.175Z,0.00
2019-02-06T01:46:44.150Z,0.00
2019-02-06T01:47:44.127Z,0.00
2019-02-06T01:48:44.112Z,0.00
2019-02-06T01:49:44.820Z,0.00
2019-02-06T01:50:44.115Z,0.00
2019-02-06T01:51:44.038Z,0.00
2019-02-06T01:52:44.013Z,0.00
2019-02-06T01:53:43.990Z,0.00
2019-02-06T01:54:43.963Z,0.00
2019-02-06T01:55:43.946Z,0.00
2019-02-06T01:56:43.919Z,0.00
2019-02-06T01:57:43.901Z,0.00
2019-02-06T01:58:43.877Z,0.00
2019-02-06T01:59:43.854Z,0.00
2019-02-06T02:00:43.829Z,0.00
2019-02-06T02:01:43.801Z,0.00
2019-02-06T02:02:43.774Z,0.00
2019-02-06T02:03:43.752Z,0.00
2019-02-06T02:04:43.739Z,0.00
2019-02-06T02:05:43.714Z,0.00
2019-02-06T02:06:43.690Z,0.00
2019-02-06T02:07:43.668Z,0.00
2019-02-06T02:08:43.647Z,0.00
2019-02-06T02:09:43.626Z,0.00
2019-02-06T02:10:43.600Z,0.00
2019-02-06T02:11:43.576Z,0.00
2019-02-06T02:12:43.550Z,0.00
2019-02-06T02:13:43.532Z,0.00
2019-02-06T02:14:43.505Z,0.00
2019-02-06T02:15:43.480Z,0.00
2019-02-06T02:16:43.466Z,0.00
2019-02-06T02:17:43.436Z,0.00
2019-02-06T02:18:43.419Z,0.00
2019-02-06T02:19:43.397Z,0.00
2019-02-06T02:20:43.370Z,0.00
2019-02-06T02:21:43.349Z,0.00
2019-02-06T02:22:43.328Z,0.00
2019-02-06T02:23:43.298Z,0.00
2019-02-06T02:24:43.277Z,0.00
2019-02-06T02:25:43.252Z,0.00
2019-02-06T02:26:43.233Z,0.00
2019-02-06T02:27:43.211Z,0.00
2019-02-06T02:28:43.187Z,0.00
2019-02-06T02:29:43.166Z,0.00
2019-02-06T02:30:43.139Z,0.00
2019-02-06T02:31:43.115Z,0.00
2019-02-06T02:32:43.099Z,0.00
2019-02-06T02:33:43.072Z,0.00
2019-02-06T02:34:43.046Z,0.00
2019-02-06T02:35:43.023Z,0.00
2019-02-06T02:36:43.002Z,0.00
2019-02-06T02:37:42.976Z,0.00
2019-02-06T02:38:42.953Z,0.00
2019-02-06T02:39:42.936Z,0.00
2019-02-06T02:40:42.908Z,0.00
2019-02-06T02:41:42.888Z,0.00
2019-02-06T02:42:42.860Z,0.00
2019-02-06T02:43:42.845Z,0.00
2019-02-06T02:44:42.818Z,0.00
2019-02-06T02:45:42.792Z,0.00
2019-02-06T02:46:42.770Z,0.00
2019-02-06T02:47:42.748Z,0.00
2019-02-06T02:48:42.727Z,0.00
2019-02-06T02:49:42.703Z,0.00
2019-02-06T02:50:42.676Z,0.00
2019-02-06T02:51:44.424Z,0.00
2019-02-06T02:52:42.634Z,0.00
2019-02-06T02:53:42.617Z,0.00
2019-02-06T02:54:42.589Z,0.00
2019-02-06T02:55:42.566Z,0.00
2019-02-06T02:56:42.543Z,0.00
2019-02-06T02:57:42.518Z,0.00
2019-02-06T02:58:42.494Z,0.00
2019-02-06T02:59:42.470Z,0.00
2019-02-06T03:00:42.450Z,0.00
2019-02-06T03:01:42.423Z,0.00
2019-02-06T03:02:42.512Z,0.00
2019-02-06T03:03:42.379Z,0.00
2019-02-06T03:04:42.358Z,0.00
2019-02-06T03:05:42.333Z,0.00
2019-02-06T03:06:42.316Z,0.00
2019-02-06T03:07:42.287Z,0.00
2019-02-06T03:08:42.265Z,0.00
2019-02-06T03:09:42.245Z,0.00
2019-02-06T03:10:42.219Z,0.00
2019-02-06T03:11:42.201Z,0.00
2019-02-06T03:12:42.179Z,0.00
2019-02-06T03:13:42.151Z,0.00
2019-02-06T03:14:42.128Z,0.00
2019-02-06T03:15:42.111Z,0.00
2019-02-06T03:16:42.079Z,0.00
2019-02-06T03:17:42.058Z,0.00
2019-02-06T03:18:42.033Z,0.00
2019-02-06T03:19:42.013Z,0.00
2019-02-06T03:20:41.991Z,0.00
2019-02-06T03:21:41.968Z,0.00
2019-02-06T03:22:41.948Z,0.00
2019-02-06T03:23:41.920Z,0.00
2019-02-06T03:24:41.901Z,0.00
2019-02-06T03:25:41.873Z,0.00
2019-02-06T03:26:41.849Z,0.00
2019-02-06T03:27:41.829Z,0.00
2019-02-06T03:28:41.805Z,0.00
2019-02-06T03:29:41.791Z,0.00
2019-02-06T03:30:41.760Z,0.00
2019-02-06T03:31:41.741Z,0.00
2019-02-06T03:32:41.794Z,0.00
2019-02-06T03:33:41.699Z,0.00
2019-02-06T03:34:41.669Z,0.00
2019-02-06T03:35:41.643Z,0.00
2019-02-06T03:36:41.622Z,0.00
2019-02-06T03:37:41.601Z,0.00
2019-02-06T03:38:41.575Z,0.00
2019-02-06T03:39:41.554Z,0.00
2019-02-06T03:40:41.533Z,0.00
2019-02-06T03:41:41.503Z,0.00
2019-02-06T03:42:41.482Z,0.00
2019-02-06T03:43:41.570Z,0.00
2019-02-06T03:44:41.439Z,0.00
2019-02-06T03:45:41.418Z,0.00
2019-02-06T03:46:41.391Z,0.00
2019-02-06T03:47:41.387Z,0.00
2019-02-06T03:48:41.346Z,0.00
2019-02-06T03:49:42.787Z,0.00
2019-02-06T03:50:41.299Z,0.00
2019-02-06T03:51:41.278Z,0.00
2019-02-06T03:52:41.255Z,0.00
2019-02-06T03:53:41.229Z,0.00
2019-02-06T03:54:41.210Z,0.00
2019-02-06T03:55:41.183Z,0.00
2019-02-06T03:56:41.162Z,0.00
2019-02-06T03:57:41.140Z,0.00
2019-02-06T03:58:41.133Z,0.00
2019-02-06T03:59:41.092Z,0.00
2019-02-06T04:00:41.069Z,0.00
2019-02-06T04:01:41.045Z,0.00
2019-02-06T04:02:41.020Z,0.00
2019-02-06T04:03:41.001Z,0.00
2019-02-06T04:04:40.974Z,0.00
2019-02-06T04:05:40.955Z,0.00
2019-02-06T04:06:52.897Z,0.00
2019-02-06T04:07:40.909Z,0.00
2019-02-06T04:08:40.890Z,0.00
2019-02-06T04:09:40.862Z,0.00
2019-02-06T04:10:40.837Z,0.00
2019-02-06T04:11:40.817Z,0.00
2019-02-06T04:12:40.796Z,0.00
2019-02-06T04:13:40.775Z,0.00
2019-02-06T04:14:40.748Z,0.00
2019-02-06T04:15:40.725Z,0.00
2019-02-06T04:16:40.703Z,0.00
2019-02-06T04:17:40.682Z,0.00
2019-02-06T04:18:40.655Z,0.00
2019-02-06T04:19:40.638Z,0.00
2019-02-06T04:20:40.619Z,0.00
2019-02-06T04:21:40.590Z,0.00
2019-02-06T04:22:40.569Z,0.00
2019-02-06T04:23:40.542Z,0.00
2019-02-06T04:24:40.518Z,0.00
2019-02-06T04:25:40.497Z,0.00
2019-02-06T04:26:40.476Z,0.00
2019-02-06T04:27:40.449Z,0.00
2019-02-06T04:28:40.425Z,0.00
2019-02-06T04:29:40.402Z,0.00
2019-02-06T04:30:40.380Z,0.00
2019-02-06T04:31:40.357Z,0.00
2019-02-06T04:32:40.333Z,0.00
2019-02-06T04:33:40.316Z,0.00
2019-02-06T04:34:40.286Z,0.00
2019-02-06T04:35:40.264Z,0.00
2019-02-06T04:36:40.243Z,0.00
2019-02-06T04:37:40.224Z,0.00
2019-02-06T04:38:40.198Z,0.00
2019-02-06T04:39:40.168Z,0.00
2019-02-06T04:40:40.155Z,0.00
2019-02-06T04:41:40.138Z,0.00
2019-02-06T04:42:40.108Z,0.00
2019-02-06T04:43:40.085Z,0.00
2019-02-06T04:44:40.056Z,0.00
2019-02-06T04:45:40.034Z,0.00
2019-02-06T04:46:40.010Z,0.00
2019-02-06T04:47:39.988Z,0.00
2019-02-06T04:48:39.968Z,0.00
2019-02-06T04:49:39.944Z,0.00
2019-02-06T04:50:39.916Z,0.00
2019-02-06T04:51:39.898Z,0.00
2019-02-06T04:52:39.873Z,0.00
2019-02-06T04:53:39.850Z,0.00
2019-02-06T04:54:39.826Z,0.00
2019-02-06T04:55:39.806Z,0.00
2019-02-06T04:56:39.788Z,0.00
2019-02-06T04:57:39.758Z,0.00
2019-02-06T04:58:39.733Z,0.00
2019-02-06T04:59:39.712Z,0.00
2019-02-06T05:00:39.692Z,0.00
2019-02-06T05:01:39.668Z,0.00
2019-02-06T05:02:39.645Z,0.00
2019-02-06T05:03:39.619Z,0.00
2019-02-06T05:04:39.596Z,0.00
2019-02-06T05:05:39.572Z,0.00
2019-02-06T05:06:39.552Z,0.00
2019-02-06T05:07:39.533Z,0.00
2019-02-06T05:08:39.507Z,0.00
2019-02-06T05:09:39.483Z,0.00
2019-02-06T05:10:39.459Z,0.00
2019-02-06T05:11:39.438Z,0.00
2019-02-06T05:12:39.408Z,0.00
2019-02-06T05:13:39.387Z,0.00
2019-02-06T05:14:39.361Z,0.00
2019-02-06T05:15:39.339Z,0.00
2019-02-06T05:16:39.315Z,0.00
2019-02-06T05:17:39.295Z,0.00
2019-02-06T05:18:39.273Z,0.00
2019-02-06T05:19:39.249Z,0.00
2019-02-06T05:20:39.227Z,0.00
2019-02-06T05:21:39.207Z,0.00
2019-02-06T05:22:39.177Z,0.00
2019-02-06T05:23:39.157Z,0.00
2019-02-06T05:24:39.133Z,0.00
2019-02-06T05:25:39.113Z,0.00
2019-02-06T05:26:39.091Z,0.00
2019-02-06T05:27:39.061Z,0.00
2019-02-06T05:28:39.046Z,0.00
2019-02-06T05:29:39.014Z,0.00
2019-02-06T05:30:38.996Z,0.00
2019-02-06T05:31:38.969Z,0.00
2019-02-06T05:32:42.827Z,0.00
2019-02-06T05:33:38.923Z,0.00
2019-02-06T05:34:38.905Z,0.00
2019-02-06T05:35:38.874Z,0.00
2019-02-06T05:36:38.850Z,0.00
2019-02-06T05:37:38.835Z,0.00
2019-02-06T05:38:38.807Z,0.00
2019-02-06T05:39:38.785Z,0.00
2019-02-06T05:40:38.759Z,0.00
2019-02-06T05:41:38.736Z,0.00
2019-02-06T05:42:38.713Z,0.00
2019-02-06T05:43:38.689Z,0.00
2019-02-06T05:44:38.665Z,0.00
2019-02-06T05:45:38.650Z,0.00
2019-02-06T05:46:38.617Z,0.00
2019-02-06T05:47:38.716Z,0.00
2019-02-06T05:48:38.576Z,0.00
2019-02-06T05:49:38.551Z,0.00
2019-02-06T05:50:38.526Z,0.00
2019-02-06T05:51:38.513Z,0.00
2019-02-06T05:52:38.486Z,0.00
2019-02-06T05:53:38.456Z,0.00
2019-02-06T05:54:38.441Z,0.00
2019-02-06T05:55:38.415Z,0.00
2019-02-06T05:56:38.387Z,0.00
2019-02-06T05:57:38.363Z,0.00
2019-02-06T05:58:38.335Z,0.00
2019-02-06T05:59:38.312Z,0.00
2019-02-06T06:00:38.290Z,0.00
2019-02-06T06:01:38.267Z,0.00
2019-02-06T06:02:38.272Z,0.00
2019-02-06T06:03:38.220Z,0.00
2019-02-06T06:04:38.198Z,0.00
2019-02-06T06:05:38.173Z,0.00
2019-02-06T06:06:38.149Z,0.00
2019-02-06T06:07:45.245Z,0.00
2019-02-06T06:08:38.103Z,0.00
2019-02-06T06:09:38.087Z,0.00
2019-02-06T06:10:38.058Z,0.00
2019-02-06T06:11:38.032Z,0.00
2019-02-06T06:12:38.012Z,0.00
2019-02-06T06:13:37.988Z,0.00
2019-02-06T06:14:37.957Z,0.00
2019-02-06T06:15:37.935Z,0.00
2019-02-06T06:16:37.915Z,0.00
2019-02-06T06:17:37.887Z,0.00
2019-02-06T06:18:37.868Z,0.00
2019-02-06T06:19:37.846Z,0.00
2019-02-06T06:20:37.824Z,0.00
2019-02-06T06:21:37.797Z,0.00
2019-02-06T06:22:37.769Z,0.00
2019-02-06T06:23:37.747Z,0.00
2019-02-06T06:24:37.724Z,0.00
2019-02-06T06:25:37.702Z,0.00
2019-02-06T06:26:37.673Z,0.00
2019-02-06T06:27:37.659Z,0.00
2019-02-06T06:28:37.633Z,0.00
2019-02-06T06:29:37.608Z,0.00
2019-02-06T06:30:37.581Z,0.00
2019-02-06T06:31:37.586Z,0.00
2019-02-06T06:32:37.535Z,5.63
2019-02-06T06:33:37.512Z,5.63
2019-02-06T06:34:37.487Z,5.63
2019-02-06T06:35:37.469Z,5.63
2019-02-06T06:36:37.442Z,5.63
2019-02-06T06:37:37.413Z,5.63
2019-02-06T06:38:37.395Z,5.63
2019-02-06T06:39:37.371Z,5.63
2019-02-06T06:40:37.343Z,5.63
2019-02-06T06:41:37.329Z,5.63
2019-02-06T06:42:37.297Z,11.25
2019-02-06T06:43:37.275Z,11.25
2019-02-06T06:44:37.256Z,11.25
2019-02-06T06:45:37.227Z,11.25
2019-02-06T06:46:37.213Z,11.25
2019-02-06T06:47:37.180Z,11.25
2019-02-06T06:48:37.157Z,16.88
2019-02-06T06:49:37.130Z,16.88
2019-02-06T06:50:37.104Z,16.88
2019-02-06T06:51:37.088Z,16.88
2019-02-06T06:52:37.054Z,22.50
2019-02-06T06:53:37.035Z,22.50
2019-02-06T06:54:37.008Z,22.50
2019-02-06T06:55:36.986Z,22.50
2019-02-06T06:56:36.961Z,22.50
2019-02-06T06:57:36.936Z,28.13
2019-02-06T06:58:36.914Z,28.13
2019-02-06T06:59:36.892Z,28.13
2019-02-06T07:00:36.873Z,28.13
2019-02-06T07:01:36.846Z,33.75
2019-02-06T07:02:36.834Z,33.75
2019-02-06T07:03:36.794Z,33.75
2019-02-06T07:04:36.771Z,33.75
2019-02-06T07:05:36.750Z,33.75
2019-02-06T07:06:36.734Z,33.75
2019-02-06T07:07:36.704Z,39.38
2019-02-06T07:08:36.678Z,39.38
2019-02-06T07:09:36.654Z,39.38
2019-02-06T07:10:36.628Z,45.00
2019-02-06T07:11:36.608Z,45.00
2019-02-06T07:12:36.582Z,50.63
2019-02-06T07:13:37.193Z,56.25
2019-02-06T07:14:36.533Z,67.50
2019-02-06T07:15:36.506Z,73.13
2019-02-06T07:16:36.486Z,84.38
2019-02-06T07:17:36.465Z,90.00
2019-02-06T07:18:36.438Z,95.63
2019-02-06T07:19:36.416Z,90.00
2019-02-06T07:20:36.492Z,95.63
2019-02-06T07:21:36.363Z,101.25
2019-02-06T07:22:36.340Z,112.50
2019-02-06T07:23:36.317Z,118.13
2019-02-06T07:24:36.296Z,129.38
2019-02-06T07:25:36.274Z,129.38
2019-02-06T07:26:36.252Z,135.00
2019-02-06T07:27:36.236Z,135.00
2019-02-06T07:28:36.201Z,140.63
2019-02-06T07:29:36.182Z,140.63
2019-02-06T07:30:36.152Z,140.63
2019-02-06T07:31:36.128Z,140.63
2019-02-06T07:32:36.500Z,146.25
2019-02-06T07:33:36.082Z,146.25
2019-02-06T07:34:36.056Z,151.88
2019-02-06T07:35:36.035Z,157.50
2019-02-06T07:36:36.010Z,163.13
2019-02-06T07:37:35.986Z,168.75
2019-02-06T07:38:35.963Z,163.13
2019-02-06T07:39:35.940Z,168.75
2019-02-06T07:40:35.920Z,168.75
2019-02-06T07:41:35.895Z,157.50
2019-02-06T07:42:35.871Z,157.50
2019-02-06T07:43:35.846Z,157.50
2019-02-06T07:44:35.825Z,157.50
2019-02-06T07:45:35.801Z,157.50
2019-02-06T07:46:35.770Z,157.50
2019-02-06T07:47:35.752Z,157.50
2019-02-06T07:48:35.734Z,157.50
2019-02-06T07:49:35.705Z,163.13
2019-02-06T07:50:35.687Z,168.75
2019-02-06T07:51:35.660Z,174.38
2019-02-06T07:52:35.630Z,180.00
2019-02-06T07:53:35.617Z,174.38
2019-02-06T07:54:35.590Z,174.38
2019-02-06T07:55:35.564Z,174.38
2019-02-06T07:56:35.545Z,174.38
2019-02-06T07:57:35.518Z,180.00
2019-02-06T07:58:35.495Z,180.00
2019-02-06T07:59:35.469Z,180.00
2019-02-06T08:00:35.449Z,180.00
2019-02-06T08:01:35.427Z,180.00
2019-02-06T08:02:35.397Z,196.88
2019-02-06T08:03:35.377Z,202.50
2019-02-06T08:04:35.361Z,208.13
2019-02-06T08:05:35.335Z,225.00
2019-02-06T08:06:35.315Z,241.88
2019-02-06T08:07:35.287Z,258.75
2019-02-06T08:08:36.458Z,281.25
2019-02-06T08:09:35.237Z,298.13
2019-02-06T08:10:35.217Z,258.75
2019-02-06T08:11:35.191Z,258.75
2019-02-06T08:12:35.170Z,247.50
2019-02-06T08:13:35.146Z,247.50
2019-02-06T08:14:35.124Z,309.38
2019-02-06T08:15:35.095Z,286.88
2019-02-06T08:16:35.077Z,315.00
2019-02-06T08:17:35.052Z,376.88
2019-02-06T08:18:35.033Z,388.13
2019-02-06T08:19:35.006Z,405.00
2019-02-06T08:20:34.986Z,360.00
2019-02-06T08:21:34.957Z,348.75
2019-02-06T08:22:34.932Z,315.00
2019-02-06T08:23:34.908Z,360.00
2019-02-06T08:24:34.889Z,275.63
2019-02-06T08:25:34.872Z,253.13
2019-02-06T08:26:34.845Z,258.75
2019-02-06T08:27:34.818Z,281.25
2019-02-06T08:28:34.871Z,270.00
2019-02-06T08:29:34.777Z,292.50
2019-02-06T08:30:35.201Z,298.13
2019-02-06T08:31:34.729Z,376.88
2019-02-06T08:32:34.704Z,298.13
2019-02-06T08:33:34.689Z,376.88
2019-02-06T08:34:34.731Z,303.75
2019-02-06T08:35:34.638Z,281.25
2019-02-06T08:36:34.618Z,405.00
2019-02-06T08:37:34.595Z,376.88
2019-02-06T08:38:34.570Z,303.75
2019-02-06T08:39:34.550Z,376.88
2019-02-06T08:40:34.533Z,298.13
2019-02-06T08:41:34.499Z,320.63
2019-02-06T08:42:34.477Z,326.25
2019-02-06T08:43:34.458Z,337.50
2019-02-06T08:44:34.449Z,326.25
2019-02-06T08:45:34.416Z,360.00
2019-02-06T08:46:34.394Z,360.00
2019-02-06T08:47:34.375Z,326.25
2019-02-06T08:48:34.345Z,292.50
2019-02-06T08:49:34.325Z,303.75
2019-02-06T08:50:34.299Z,315.00
2019-02-06T08:51:34.287Z,292.50
2019-02-06T08:52:34.256Z,320.63
2019-02-06T08:53:34.240Z,320.63
2019-02-06T08:54:34.212Z,326.25
2019-02-06T08:55:34.192Z,326.25
2019-02-06T08:56:34.164Z,326.25
2019-02-06T08:57:34.142Z,320.63
2019-02-06T08:58:34.120Z,320.63
2019-02-06T08:59:36.182Z,360.00
2019-02-06T09:00:34.082Z,354.38
2019-02-06T09:01:34.055Z,399.38
2019-02-06T09:02:34.042Z,382.50
2019-02-06T09:03:34.012Z,365.63
2019-02-06T09:04:33.987Z,365.63
2019-02-06T09:05:33.970Z,337.50
2019-02-06T09:06:33.945Z,298.13
2019-02-06T09:07:33.922Z,309.38
2019-02-06T09:08:33.901Z,315.00
2019-02-06T09:09:33.876Z,348.75
2019-02-06T09:10:33.857Z,331.88
2019-02-06T09:11:33.837Z,337.50
2019-02-06T09:12:33.811Z,354.38
2019-02-06T09:13:33.789Z,326.25
2019-02-06T09:14:33.766Z,337.50
2019-02-06T09:15:33.742Z,371.25
2019-02-06T09:16:33.720Z,376.88
2019-02-06T09:17:33.703Z,376.88
2019-02-06T09:18:33.680Z,376.88
2019-02-06T09:19:33.660Z,399.38
2019-02-06T09:20:33.635Z,393.75
2019-02-06T09:21:33.615Z,376.88
2019-02-06T09:22:33.592Z,365.63
2019-02-06T09:23:33.568Z,433.13
2019-02-06T09:24:33.546Z,455.63
2019-02-06T09:25:33.524Z,438.75
2019-02-06T09:26:36.132Z,433.13
2019-02-06T09:27:33.485Z,495.00
2019-02-06T09:28:33.462Z,489.38
2019-02-06T09:29:33.450Z,562.50
2019-02-06T09:31:33.399Z,646.88
2019-02-06T09:32:33.374Z,708.75
2019-02-06T09:33:33.352Z,736.88
2019-02-06T09:34:33.332Z,781.88
2019-02-06T09:35:33.311Z,815.63
2019-02-06T09:36:33.296Z,849.38
2019-02-06T09:37:33.272Z,821.25
2019-02-06T09:38:33.252Z,832.50
2019-02-06T09:39:33.242Z,776.25
2019-02-06T09:40:33.208Z,793.13
2019-02-06T09:41:33.192Z,765.00
2019-02-06T09:42:33.171Z,765.00
2019-02-06T09:43:33.148Z,781.88
2019-02-06T09:44:33.133Z,748.13
2019-02-06T09:45:33.106Z,776.25
2019-02-06T09:46:33.088Z,776.25
2019-02-06T09:47:33.079Z,793.13
2019-02-06T09:48:33.050Z,793.13
2019-02-06T09:49:33.086Z,810.00
2019-02-06T09:50:33.014Z,810.00
2019-02-06T09:51:32.996Z,787.50
2019-02-06T09:52:32.981Z,815.63
2019-02-06T09:53:32.960Z,804.38
2019-02-06T09:54:32.938Z,855.00
2019-02-06T09:55:32.934Z,883.13
2019-02-06T09:56:32.909Z,911.25
2019-02-06T09:57:35.461Z,928.13
2019-02-06T09:58:32.869Z,961.88
2019-02-06T09:59:32.854Z,961.88
2019-02-06T10:00:32.839Z,956.25
2019-02-06T10:01:32.819Z,973.13
2019-02-06T10:02:32.796Z,1001.25
2019-02-06T10:03:32.778Z,956.25
2019-02-06T10:04:32.764Z,961.88
2019-02-06T10:05:32.747Z,916.88
2019-02-06T10:06:32.725Z,883.13
2019-02-06T10:07:32.719Z,804.38
2019-02-06T10:08:32.694Z,781.88
2019-02-06T10:09:32.677Z,781.88
2019-02-06T10:10:32.716Z,770.63
2019-02-06T10:11:32.641Z,742.50
2019-02-06T10:12:32.625Z,703.13
2019-02-06T10:13:32.609Z,708.75
2019-02-06T10:14:32.588Z,652.50
2019-02-06T10:15:32.646Z,585.00
2019-02-06T10:16:32.558Z,585.00
2019-02-06T10:17:32.536Z,590.63
2019-02-06T10:18:32.520Z,613.13
2019-02-06T10:19:32.499Z,613.13
2019-02-06T10:20:32.484Z,613.13
2019-02-06T10:21:32.469Z,568.13
2019-02-06T10:22:32.452Z,613.13
2019-02-06T10:23:32.427Z,641.25
2019-02-06T10:24:32.410Z,663.75
2019-02-06T10:25:32.393Z,686.25
2019-02-06T10:26:32.370Z,669.38
2019-02-06T10:27:32.364Z,652.50
2019-02-06T10:28:32.343Z,579.38
2019-02-06T10:29:32.318Z,736.88
2019-02-06T10:30:32.302Z,708.75
2019-02-06T10:31:32.901Z,720.00
2019-02-06T10:32:32.266Z,759.38
2019-02-06T10:33:32.250Z,663.75
2019-02-06T10:34:32.231Z,708.75
2019-02-06T10:35:32.210Z,680.63
2019-02-06T10:36:32.194Z,646.88
2019-02-06T10:37:32.175Z,506.25
2019-02-06T10:38:32.154Z,630.00
2019-02-06T10:39:34.641Z,607.50
2019-02-06T10:40:32.115Z,590.63
2019-02-06T10:41:32.098Z,585.00
2019-02-06T10:42:32.078Z,635.63
2019-02-06T10:43:35.706Z,703.13
2019-02-06T10:44:32.048Z,810.00
2019-02-06T10:45:32.026Z,736.88
2019-02-06T10:46:32.012Z,832.50
2019-02-06T10:47:31.991Z,770.63
2019-02-06T10:48:31.970Z,742.50
2019-02-06T10:49:31.952Z,714.38
2019-02-06T10:50:31.995Z,675.00
2019-02-06T10:51:31.918Z,630.00
2019-02-06T10:52:31.901Z,680.63
2019-02-06T10:53:31.999Z,573.75
2019-02-06T10:54:31.857Z,545.63
2019-02-06T10:55:31.843Z,652.50
2019-02-06T10:56:31.825Z,658.13
2019-02-06T10:57:31.807Z,613.13
2019-02-06T10:58:31.783Z,556.88
2019-02-06T10:59:31.782Z,517.50
2019-02-06T11:00:31.745Z,461.25
2019-02-06T11:01:31.730Z,478.13
2019-02-06T11:02:34.521Z,562.50
2019-02-06T11:03:31.693Z,551.25
2019-02-06T11:04:31.675Z,540.00
2019-02-06T11:05:31.656Z,613.13
2019-02-06T11:06:31.637Z,601.88
2019-02-06T11:07:31.617Z,630.00
2019-02-06T11:08:31.597Z,630.00
2019-02-06T11:09:31.583Z,624.38
2019-02-06T11:10:31.559Z,613.13
2019-02-06T11:11:31.545Z,607.50
2019-02-06T11:12:31.527Z,607.50
2019-02-06T11:13:31.503Z,556.88
2019-02-06T11:14:31.488Z,568.13
2019-02-06T11:15:31.467Z,573.75
2019-02-06T11:16:31.447Z,579.38
2019-02-06T11:17:31.431Z,635.63
2019-02-06T11:18:31.417Z,646.88
2019-02-06T11:19:31.399Z,568.13
2019-02-06T11:20:31.377Z,444.38
2019-02-06T11:21:31.395Z,483.75
2019-02-06T11:22:31.335Z,534.38
2019-02-06T11:23:31.317Z,607.50
2019-02-06T11:24:31.298Z,686.25
2019-02-06T11:25:31.281Z,714.38
2019-02-06T11:26:31.258Z,579.38
2019-02-06T11:27:31.244Z,669.38
2019-02-06T11:28:31.225Z,691.88
2019-02-06T11:29:31.205Z,703.13
2019-02-06T11:30:31.201Z,720.00
2019-02-06T11:31:31.165Z,703.13
2019-02-06T11:32:31.151Z,691.88
2019-02-06T11:33:31.131Z,680.63
2019-02-06T11:34:31.107Z,663.75
2019-02-06T11:35:31.091Z,596.25
2019-02-06T11:36:31.071Z,568.13
2019-02-06T11:37:31.053Z,540.00
2019-02-06T11:38:31.038Z,528.75
2019-02-06T11:39:31.019Z,551.25
2019-02-06T11:40:31.001Z,540.00
2019-02-06T11:41:30.978Z,506.25
2019-02-06T11:42:30.957Z,450.00
2019-02-06T11:43:32.155Z,438.75
2019-02-06T11:44:30.925Z,438.75
2019-02-06T11:45:30.907Z,472.50
2019-02-06T11:46:30.885Z,472.50
2019-02-06T11:47:30.868Z,461.25
2019-02-06T11:48:30.848Z,455.63
2019-02-06T11:49:30.835Z,511.88
2019-02-06T11:50:30.809Z,528.75
2019-02-06T11:51:30.795Z,562.50
2019-02-06T11:52:30.774Z,562.50
2019-02-06T11:53:30.759Z,596.25
2019-02-06T11:54:30.730Z,596.25
2019-02-06T11:55:30.719Z,585.00
2019-02-06T11:56:30.702Z,607.50
2019-02-06T11:57:30.677Z,635.63
2019-02-06T11:58:30.662Z,652.50
2019-02-06T11:59:30.641Z,641.25
2019-02-06T12:00:30.619Z,630.00
2019-02-06T12:01:30.601Z,624.38
2019-02-06T12:02:37.367Z,697.50
2019-02-06T12:03:30.570Z,703.13
2019-02-06T12:04:30.545Z,669.38
2019-02-06T12:05:30.525Z,658.13
2019-02-06T12:06:30.506Z,663.75
2019-02-06T12:07:30.490Z,697.50
2019-02-06T12:08:31.262Z,669.38
2019-02-06T12:09:30.450Z,720.00
2019-02-06T12:10:30.434Z,675.00
2019-02-06T12:11:30.416Z,658.13
2019-02-06T12:12:30.396Z,540.00
2019-02-06T12:13:30.386Z,534.38
2019-02-06T12:14:30.359Z,573.75
2019-02-06T12:15:30.342Z,551.25
2019-02-06T12:16:30.448Z,517.50
2019-02-06T12:17:30.303Z,450.00
2019-02-06T12:18:30.282Z,433.13
2019-02-06T12:19:30.263Z,410.63
2019-02-06T12:20:30.245Z,410.63
2019-02-06T12:21:30.230Z,427.50
2019-02-06T12:22:30.207Z,427.50
2019-02-06T12:23:32.263Z,427.50
2019-02-06T12:24:30.168Z,410.63
2019-02-06T12:25:30.151Z,382.50
2019-02-06T12:26:30.137Z,376.88
2019-02-06T12:27:30.113Z,376.88
2019-02-06T12:28:30.094Z,371.25
2019-02-06T12:29:30.075Z,388.13
2019-02-06T12:30:30.055Z,393.75
2019-02-06T12:31:30.036Z,399.38
2019-02-06T12:32:30.021Z,410.63
2019-02-06T12:33:30.000Z,410.63
2019-02-06T12:34:29.978Z,421.88
2019-02-06T12:35:29.963Z,405.00
2019-02-06T12:36:29.946Z,405.00
2019-02-06T12:37:29.923Z,388.13
2019-02-06T12:38:29.909Z,365.63
2019-02-06T12:39:29.884Z,365.63
2019-02-06T12:40:29.864Z,371.25
2019-02-06T12:41:29.848Z,371.25
2019-02-06T12:42:29.826Z,376.88
2019-02-06T12:43:29.811Z,376.88
2019-02-06T12:44:29.791Z,388.13
2019-02-06T12:45:29.772Z,405.00
2019-02-06T12:46:29.747Z,410.63
2019-02-06T12:47:29.733Z,399.38
2019-02-06T12:48:29.709Z,405.00
2019-02-06T12:49:29.698Z,410.63
2019-02-06T12:50:29.672Z,388.13
2019-02-06T12:51:29.654Z,371.25
2019-02-06T12:52:29.631Z,371.25
2019-02-06T12:53:29.610Z,371.25
2019-02-06T12:54:29.597Z,376.88
2019-02-06T12:55:29.572Z,376.88
2019-02-06T12:56:29.551Z,376.88
2019-02-06T12:57:37.160Z,376.88
2019-02-06T12:58:29.522Z,376.88
2019-02-06T12:59:29.495Z,365.63
2019-02-06T13:00:29.478Z,343.13
2019-02-06T13:01:29.461Z,320.63
2019-02-06T13:02:29.435Z,303.75
2019-02-06T13:03:29.417Z,292.50
2019-02-06T13:04:29.397Z,281.25
2019-02-06T13:05:29.385Z,286.88
2019-02-06T13:06:29.353Z,309.38
2019-02-06T13:07:29.335Z,298.13
2019-02-06T13:08:29.319Z,281.25
2019-02-06T13:09:29.297Z,281.25
2019-02-06T13:10:33.945Z,281.25
2019-02-06T13:11:29.256Z,275.63
2019-02-06T13:12:29.241Z,275.63
2019-02-06T13:13:29.220Z,270.00
2019-02-06T13:14:29.198Z,264.38
2019-02-06T13:15:29.299Z,258.75
2019-02-06T13:16:29.161Z,258.75
2019-02-06T13:17:29.137Z,258.75
2019-02-06T13:18:29.118Z,264.38
2019-02-06T13:19:29.095Z,258.75
2019-02-06T13:20:29.075Z,241.88
2019-02-06T13:21:29.062Z,236.25
2019-02-06T13:22:29.040Z,230.63